Time;durP1;ratioP1;P1;durP2;ratioP2;P2;SDS_P1;SDS_P2;PMS_P1;PMS_P2;Temp;Humidity;BMP_temperature;BMP_pressure;BME280_temperature;BME280_humidity;BME280_pressure;Samples;Min_cycle;Max_cycle;Signal;HPM_P1;HPM_P2
2022/08/21 00:01:23;;;;;;;239.20;115.72;;;;;;;19.79;64.32;101200.78;4914606;28;120147;-78
2022/08/21 00:03:49;;;;;;;301.23;166.00;;;;;;;19.82;65.00;101204.59;4911628;28;120677;-78
2022/08/21 00:06:16;;;;;;;55.05;34.22;;;;;;;19.84;64.38;101207.63;4915411;28;119877;-79
2022/08/21 00:08:42;;;;;;;47.97;28.58;;;;;;;19.83;64.61;101201.28;4905847;28;121263;-79
2022/08/21 00:11:08;;;;;;;58.78;37.45;;;;;;;19.86;65.05;101205.09;4908716;28;120636;-78
2022/08/21 00:13:36;;;;;;;74.25;48.83;;;;;;;19.85;65.08;101203.56;4914912;28;121401;-78
2022/08/21 00:16:03;;;;;;;29.30;20.38;;;;;;;19.85;64.30;101200.78;4912991;28;122379;-78
2022/08/21 00:18:29;;;;;;;20.35;13.77;;;;;;;19.82;64.58;101196.22;4908188;28;120805;-79
2022/08/21 00:20:55;;;;;;;21.17;14.98;;;;;;;19.79;64.95;101200.03;4916667;28;122083;-78
2022/08/21 00:23:21;;;;;;;22.42;16.40;;;;;;;19.79;64.94;101200.03;4914139;28;120435;-79
2022/08/21 00:25:47;;;;;;;23.57;15.53;;;;;;;19.82;64.39;101205.34;4912025;28;120707;-78
2022/08/21 00:28:13;;;;;;;23.73;17.15;;;;;;;19.74;64.46;101203.56;4915822;28;120278;-78
2022/08/21 00:30:39;;;;;;;30.45;23.65;;;;;;;19.62;63.69;101184.03;4904952;28;120122;-78
2022/08/21 00:33:06;;;;;;;33.13;26.33;;;;;;;19.71;64.58;101202.53;4924859;28;119899;-79
2022/08/21 00:35:35;;;;;;;28.83;20.47;;;;;;;19.74;64.83;101209.13;4914599;28;121463;-79
2022/08/21 00:38:03;;;;;;;27.87;22.63;;;;;;;19.72;64.55;101201.28;4911013;28;119669;-79
2022/08/21 00:40:40;;;;;;;33.40;25.30;;;;;;;19.71;64.67;101204.56;4914532;28;119962;-78
2022/08/21 00:43:11;;;;;;;38.50;30.73;;;;;;;19.70;64.54;101200.25;4885168;28;121485;-78
2022/08/21 00:45:36;;;;;;;62.50;50.40;;;;;;;19.62;63.71;101192.38;4904856;28;121214;-78
2022/08/21 00:48:06;;;;;;;57.47;44.30;;;;;;;19.66;65.23;101202.53;4906906;28;119661;-78
2022/08/21 00:50:36;;;;;;;200.77;161.55;;;;;;;19.65;64.03;101203.78;4910431;28;121666;-78
2022/08/21 00:53:07;;;;;;;92.43;75.68;;;;;;;19.63;65.07;101199.47;4914584;28;119454;-78
2022/08/21 00:56:02;;;;;;;29.50;20.70;;;;;;;19.63;64.76;101193.13;4898338;28;120864;-78
2022/08/21 00:58:30;;;;;;;22.77;17.30;;;;;;;19.57;65.01;101187.56;4921717;28;120526;-78
2022/08/21 01:00:59;;;;;;;20.35;14.88;;;;;;;19.62;64.32;101192.38;4907092;28;120588;-79
2022/08/21 01:03:25;;;;;;;18.48;14.32;;;;;;;19.64;64.54;101189.13;4909686;28;120179;-78
2022/08/21 01:05:52;;;;;;;20.90;15.07;;;;;;;19.64;65.14;101186.34;4896955;28;120371;-79
2022/08/21 01:08:19;;;;;;;28.33;23.13;;;;;;;19.63;64.87;101187.56;4909949;28;119672;-79
2022/08/21 01:10:46;;;;;;;44.15;39.03;;;;;;;19.58;64.14;101180.72;4918187;28;120600;-78
2022/08/21 01:13:16;;;;;;;54.33;46.05;;;;;;;19.63;64.26;101187.56;4907247;28;119603;-78
2022/08/21 01:15:44;;;;;;;28.58;22.35;;;;;;;19.62;64.00;101188.84;4906939;28;119889;-78
2022/08/21 01:18:12;;;;;;;31.92;25.60;;;;;;;19.57;63.49;101189.59;4909106;28;120435;-78
2022/08/21 01:20:43;;;;;;;30.65;23.42;;;;;;;19.51;63.80;101189.53;4905570;28;120428;-79
2022/08/21 01:23:09;;;;;;;41.40;30.33;;;;;;;19.46;64.67;101186.75;4876298;28;120028;-79
2022/08/21 01:25:35;;;;;;;143.40;106.33;;;;;;;19.44;64.42;101192.81;4907667;28;119693;-78
2022/08/21 01:28:09;;;;;;;43.15;34.30;;;;;;;19.38;63.68;101192.00;4904061;28;120007;-79
2022/08/21 01:30:37;;;;;;;34.08;26.23;;;;;;;19.32;64.47;101188.44;4912458;28;120876;-78
2022/08/21 01:33:03;;;;;;;22.83;17.83;;;;;;;19.26;63.70;101193.22;4911141;28;119841;-78
2022/08/21 01:35:29;;;;;;;25.53;17.40;;;;;;;19.16;63.84;101189.88;4906937;28;119530;-78
2022/08/21 01:37:58;;;;;;;22.60;16.60;;;;;;;19.15;64.42;101195.94;4917606;28;120013;-78
2022/08/21 01:40:24;;;;;;;22.20;15.95;;;;;;;19.00;64.43;101174.66;4919611;28;120721;-78
2022/08/21 01:42:50;;;;;;;22.70;17.10;;;;;;;19.07;64.82;101189.34;4909239;28;120323;-78
2022/08/21 01:45:17;;;;;;;22.85;15.40;;;;;;;19.06;64.26;101196.16;4898113;28;120490;-78
2022/08/21 01:47:43;;;;;;;21.90;16.20;;;;;;;19.04;64.04;101193.88;4914583;28;120289;-78
2022/08/21 01:50:12;;;;;;;24.43;17.80;;;;;;;18.98;64.70;101191.06;4891334;28;120469;-78
2022/08/21 01:52:38;;;;;;;22.60;16.70;;;;;;;18.86;64.63;101178.34;4914719;28;119438;-78
2022/08/21 01:55:07;;;;;;;21.30;16.27;;;;;;;18.94;64.86;101193.31;4903029;28;120691;-79
2022/08/21 01:57:32;;;;;;;21.13;15.40;;;;;;;18.91;64.19;101197.06;4901547;28;121567;-78
2022/08/21 01:59:58;;;;;;;25.73;17.02;;;;;;;18.88;65.03;101192.50;4890399;28;120600;-78
2022/08/21 02:02:27;;;;;;;25.95;17.45;;;;;;;18.84;64.78;101199.56;4901838;28;120613;-78
2022/08/21 02:04:52;;;;;;;21.92;16.98;;;;;;;18.83;64.67;101198.03;4912464;28;120437;-78
2022/08/21 02:07:18;;;;;;;22.00;17.10;;;;;;;18.76;64.87;101188.13;4903229;28;120675;-78
2022/08/21 02:09:44;;;;;;;20.75;16.35;;;;;;;18.81;65.16;101192.22;4902035;28;119717;-79
2022/08/21 02:12:11;;;;;;;23.17;15.70;;;;;;;18.77;64.21;101191.69;4886610;28;120176;-78
2022/08/21 02:14:37;;;;;;;20.20;16.07;;;;;;;18.72;64.18;101198.72;4905986;28;119863;-78
2022/08/21 02:17:03;;;;;;;21.75;17.25;;;;;;;18.59;64.91;101181.66;4911469;28;121849;-78
2022/08/21 02:19:29;;;;;;;22.75;16.90;;;;;;;18.66;65.05;101189.56;4894426;28;119692;-79
2022/08/21 02:21:54;;;;;;;22.90;16.65;;;;;;;18.59;64.66;101193.53;4914606;28;120329;-79
2022/08/21 02:24:20;;;;;;;22.38;16.45;;;;;;;18.60;64.80;101192.28;4908793;28;120204;-78
2022/08/21 02:26:46;;;;;;;22.63;16.02;;;;;;;18.51;64.52;101183.38;4920943;28;119918;-78
2022/08/21 02:29:12;;;;;;;24.63;16.70;;;;;;;18.51;64.64;101183.38;4924578;28;119538;-78
2022/08/21 02:31:38;;;;;;;26.67;17.92;;;;;;;18.40;65.32;101179.25;4901313;28;120020;-79
2022/08/21 02:34:03;;;;;;;23.60;16.52;;;;;;;18.36;65.36;101175.16;4900155;28;120930;-78
2022/08/21 02:36:29;;;;;;;21.80;16.30;;;;;;;18.39;65.20;101185.28;4910576;28;121087;-78
2022/08/21 02:38:55;;;;;;;23.13;16.50;;;;;;;18.44;65.55;101183.81;4913159;28;119668;-78
2022/08/21 02:41:22;;;;;;;20.67;15.10;;;;;;;18.41;64.80;101172.44;4931879;28;119698;-78
2022/08/21 02:43:48;;;;;;;20.40;15.52;;;;;;;18.39;65.22;101177.72;4917379;28;120716;-78
2022/08/21 02:46:17;;;;;;;23.02;16.10;;;;;;;18.44;66.29;101169.91;4921956;28;119535;-79
2022/08/21 02:48:43;;;;;;;22.70;15.35;;;;;;;18.42;65.70;101167.63;4917257;28;120322;-78
2022/08/21 02:51:12;;;;;;;22.17;15.25;;;;;;;18.48;64.88;101170.47;4919310;28;119699;-78
2022/08/21 02:53:40;;;;;;;21.73;16.05;;;;;;;18.43;65.17;101171.94;4906979;28;122287;-78
2022/08/21 02:56:08;;;;;;;22.97;16.13;;;;;;;18.39;65.53;101163.84;4912498;28;119515;-78
2022/08/21 02:58:38;;;;;;;23.15;16.10;;;;;;;18.42;65.52;101162.09;4917414;28;120896;-79
2022/08/21 03:01:09;;;;;;;22.23;15.80;;;;;;;18.41;65.59;101158.53;4918986;28;120635;-78
2022/08/21 03:03:37;;;;;;;21.93;17.00;;;;;;;18.41;65.71;101166.13;4907438;28;120242;-79
2022/08/21 03:06:04;;;;;;;20.92;15.77;;;;;;;18.39;64.84;101157.53;4906712;28;120235;-78
2022/08/21 03:08:29;;;;;;;23.23;17.23;;;;;;;18.35;65.39;101157.75;4921596;28;120824;-79
2022/08/21 03:10:55;;;;;;;22.48;16.70;;;;;;;18.34;65.86;101153.44;4921652;28;120210;-78
2022/08/21 03:13:21;;;;;;;23.65;16.30;;;;;;;18.33;65.05;101153.94;4925612;28;119723;-79
2022/08/21 03:15:49;;;;;;;21.17;16.60;;;;;;;18.30;64.81;101152.91;4925827;28;119945;-78
2022/08/21 03:18:15;;;;;;;21.42;16.20;;;;;;;18.28;66.46;101146.34;4904412;28;119694;-79
2022/08/21 03:20:42;;;;;;;23.63;18.02;;;;;;;18.26;66.53;101138.50;4915538;28;119986;-79
2022/08/21 03:23:08;;;;;;;23.95;18.42;;;;;;;18.31;65.79;101143.34;4920101;28;119924;-79
2022/08/21 03:25:35;;;;;;;25.03;17.37;;;;;;;18.30;65.23;101130.69;4925090;28;120690;-78
2022/08/21 03:28:02;;;;;;;23.40;17.58;;;;;;;18.31;65.35;101143.34;4899928;28;119658;-78
2022/08/21 03:30:30;;;;;;;23.50;18.17;;;;;;;18.27;65.27;101131.69;4932278;28;120243;-78
2022/08/21 03:33:00;;;;;;;24.10;18.27;;;;;;;18.30;65.37;101143.81;4913570;28;120062;-78
2022/08/21 03:35:27;;;;;;;24.70;18.63;;;;;;;18.28;65.47;101140.78;4905622;28;120506;-79
2022/08/21 03:37:54;;;;;;;22.50;17.73;;;;;;;18.26;65.17;101144.06;4909539;28;120042;-78
2022/08/21 03:40:24;;;;;;;26.47;18.83;;;;;;;18.23;65.32;101138.72;4924325;28;119393;-79
2022/08/21 03:42:51;;;;;;;24.17;18.20;;;;;;;18.25;65.76;101142.53;4907600;28;119411;-78
2022/08/21 03:45:18;;;;;;;23.63;17.55;;;;;;;18.23;64.61;101141.50;4918282;28;120495;-78
2022/08/21 03:47:52;;;;;;;26.75;18.17;;;;;;;18.17;65.17;101135.88;4919332;28;119502;-78
2022/08/21 03:50:18;;;;;;;26.52;19.52;;;;;;;18.17;65.73;101146.22;4912656;28;120088;-78
2022/08/21 03:52:44;;;;;;;27.08;20.38;;;;;;;18.18;66.18;101137.41;4919677;28;120169;-79
2022/08/21 03:55:10;;;;;;;24.35;17.77;;;;;;;18.18;65.54;101148.50;4916579;28;120920;-79
2022/08/21 03:57:36;;;;;;;28.38;20.27;;;;;;;18.13;66.11;101134.59;4921822;28;119414;-78
2022/08/21 04:00:04;;;;;;;25.30;19.83;;;;;;;18.12;66.44;101138.63;4914336;28;119775;-78
2022/08/21 04:02:56;;;;;;;27.63;19.27;;;;;;;18.14;66.03;101145.19;4909739;28;120692;-79
2022/08/21 04:05:28;;;;;;;24.50;18.93;;;;;;;18.19;65.97;101150.03;4925095;28;119494;-78
2022/08/21 04:07:59;;;;;;;27.60;18.67;;;;;;;18.18;66.34;101148.50;4920872;28;120104;-78
2022/08/21 04:10:30;;;;;;;25.52;19.20;;;;;;;18.19;66.09;101144.47;4921344;28;120854;-78
2022/08/21 04:12:56;;;;;;;24.83;19.07;;;;;;;18.21;66.22;101147.53;4918745;28;119742;-78
2022/08/21 04:15:24;;;;;;;23.90;18.20;;;;;;;18.23;65.88;101145.03;4924018;28;120153;-79
2022/08/21 04:17:50;;;;;;;21.83;16.90;;;;;;;18.26;65.79;101141.28;4921213;28;119625;-79
2022/08/21 04:20:17;;;;;;;24.23;17.42;;;;;;;18.28;65.70;101149.88;4908102;28;119608;-79
2022/08/21 04:23:06;;;;;;;24.13;16.40;;;;;;;18.27;65.19;101137.25;4914405;28;120690;-78
2022/08/21 04:25:32;;;;;;;22.30;16.73;;;;;;;18.26;64.68;101141.28;4907095;28;119908;-78
2022/08/21 04:27:58;;;;;;;21.25;16.48;;;;;;;18.22;64.89;101135.19;4912627;28;119952;-78
2022/08/21 04:30:25;;;;;;;23.50;17.27;;;;;;;18.19;64.86;101138.94;4913184;28;120866;-78
2022/08/21 04:32:51;;;;;;;23.30;17.85;;;;;;;18.21;65.91;101130.88;4912448;28;120133;-78
2022/08/21 04:35:22;;;;;;;22.13;17.37;;;;;;;18.29;65.26;101143.06;4917526;28;120102;-78
2022/08/21 04:37:48;;;;;;;22.33;17.55;;;;;;;18.24;65.86;101126.38;4916702;28;120655;-78
2022/08/21 04:40:16;;;;;;;23.75;17.45;;;;;;;18.32;65.74;101142.06;4895859;28;120793;-78
2022/08/21 04:42:49;;;;;;;22.05;16.52;;;;;;;18.38;65.45;101142.88;4881491;28;120131;-79
2022/08/21 04:45:39;;;;;;;21.73;16.52;;;;;;;18.37;64.58;101137.81;4912681;28;119922;-78
2022/08/21 04:48:08;;;;;;;23.70;16.60;;;;;;;18.17;64.35;101112.91;4905971;28;120302;-79
2022/08/21 04:50:45;;;;;;;23.52;18.02;;;;;;;18.34;65.51;101134.00;4917286;28;119858;-79
2022/08/21 04:53:17;;;;;;;23.00;17.55;;;;;;;18.36;65.08;101125.94;4915658;28;119731;-78
2022/08/21 04:55:44;;;;;;;22.00;16.43;;;;;;;18.36;64.24;101130.75;4914538;28;119733;-79
2022/08/21 04:58:12;;;;;;;22.20;17.27;;;;;;;18.40;65.77;101134.81;4917043;28;119614;-78
2022/08/21 05:00:39;;;;;;;23.00;16.38;;;;;;;18.42;64.95;101135.06;4904170;28;119894;-78
2022/08/21 05:03:07;;;;;;;21.27;15.43;;;;;;;18.42;64.17;101137.84;4905940;28;120879;-78
2022/08/21 05:05:34;;;;;;;24.83;16.30;;;;;;;18.47;65.36;101147.50;4917532;28;120118;-78
2022/08/21 05:08:02;;;;;;;22.00;16.40;;;;;;;18.55;65.19;101140.22;4898088;28;120551;-78
2022/08/21 05:10:28;;;;;;;21.35;16.40;;;;;;;18.60;65.19;101141.50;4904489;28;120000;-79
2022/08/21 05:12:55;;;;;;;20.60;15.45;;;;;;;18.61;64.57;101143.03;4915467;28;119549;-79
2022/08/21 05:15:21;;;;;;;22.30;16.20;;;;;;;18.68;65.21;101148.91;4924809;28;120191;-79
2022/08/21 05:17:46;;;;;;;22.30;16.30;;;;;;;18.75;65.10;101150.50;4909345;28;120174;-79
2022/08/21 05:20:14;;;;;;;24.05;15.98;;;;;;;18.83;64.90;101150.78;4916078;28;121108;-78
2022/08/21 05:22:40;;;;;;;20.20;14.73;;;;;;;18.84;63.90;101153.06;4907086;28;120083;-79
2022/08/21 05:25:07;;;;;;;22.15;16.05;;;;;;;18.86;64.84;101145.00;4908459;28;120288;-79
2022/08/21 05:27:33;;;;;;;19.80;14.97;;;;;;;18.93;64.44;101144.53;4907971;28;120285;-79
2022/08/21 05:29:59;;;;;;;22.03;16.00;;;;;;;18.98;64.54;101152.16;4909490;28;120443;-78
2022/08/21 05:32:25;;;;;;;20.70;14.80;;;;;;;19.00;63.46;101146.09;4914722;28;120032;-79
2022/08/21 05:34:50;;;;;;;22.83;15.68;;;;;;;19.01;64.49;101153.16;4917372;28;119802;-78
2022/08/21 05:37:16;;;;;;;20.37;15.20;;;;;;;19.05;64.60;101150.16;4899944;28;122499;-78
2022/08/21 05:39:42;;;;;;;18.97;15.07;;;;;;;19.18;64.88;101150.47;4908577;28;122105;-78
2022/08/21 05:42:08;;;;;;;21.23;14.55;;;;;;;19.24;64.56;101151.25;4910729;28;119649;-78
2022/08/21 05:44:33;;;;;;;21.67;14.90;;;;;;;19.27;65.09;101139.13;4911715;28;120105;-79
2022/08/21 05:47:07;;;;;;;20.67;15.20;;;;;;;19.40;64.80;101147.00;4878822;28;121784;-79
2022/08/21 05:49:33;;;;;;;19.17;13.77;;;;;;;19.45;64.07;101141.47;4912512;28;120087;-79
2022/08/21 05:51:59;;;;;;;18.67;13.20;;;;;;;19.56;64.24;101146.31;4898748;28;120758;-78
2022/08/21 05:54:25;;;;;;;17.03;12.07;;;;;;;19.64;63.08;101147.38;4911555;28;120699;-78
2022/08/21 05:56:51;;;;;;;16.77;12.65;;;;;;;19.71;63.13;101152.44;4917907;28;119859;-78
2022/08/21 05:59:18;;;;;;;19.58;12.98;;;;;;;19.77;63.59;101149.66;4920014;28;120399;-78
2022/08/21 06:01:45;;;;;;;17.52;12.38;;;;;;;19.84;63.83;101151.94;4919933;28;120273;-79
2022/08/21 06:04:11;;;;;;;18.45;13.05;;;;;;;19.90;64.10;101144.38;4913703;28;120439;-78
2022/08/21 06:06:37;;;;;;;18.48;12.02;;;;;;;19.97;63.64;101148.69;4914704;28;119867;-78
2022/08/21 06:09:03;;;;;;;17.33;11.23;;;;;;;20.02;62.58;101142.38;4917748;28;120231;-78
2022/08/21 06:11:29;;;;;;;17.63;12.32;;;;;;;19.98;63.32;101139.84;4915617;28;119942;-78
2022/08/21 06:13:55;;;;;;;17.15;11.80;;;;;;;20.03;64.45;101127.94;4918240;28;120247;-79
2022/08/21 06:16:22;;;;;;;14.98;11.00;;;;;;;20.13;63.25;101137.56;4914802;28;120742;-78
2022/08/21 06:18:48;;;;;;;14.38;11.35;;;;;;;20.17;64.49;101129.72;4921990;28;119794;-78
2022/08/21 06:21:14;;;;;;;16.95;11.57;;;;;;;20.34;63.65;101137.28;4891361;28;120218;-78
2022/08/21 06:23:41;;;;;;;14.50;10.70;;;;;;;20.39;63.54;101131.75;4905423;28;122458;-78
2022/08/21 06:26:08;;;;;;;18.10;10.18;;;;;;;20.49;62.35;101133.00;4911010;28;120091;-78
2022/08/21 06:28:35;;;;;;;15.33;9.77;;;;;;;20.53;61.86;101139.09;4911336;28;120258;-78
2022/08/21 06:31:01;;;;;;;15.02;9.30;;;;;;;20.55;62.43;101135.78;4902041;28;121829;-78
2022/08/21 06:33:27;;;;;;;17.20;10.10;;;;;;;20.66;63.48;101129.44;4908806;28;120037;-78
2022/08/21 06:35:53;;;;;;;18.33;9.77;;;;;;;20.77;63.67;101132.19;4903871;28;119885;-78
2022/08/21 06:38:19;;;;;;;12.90;8.87;;;;;;;20.87;62.56;101138.28;4881019;28;120538;-79
2022/08/21 06:40:45;;;;;;;13.25;9.35;;;;;;;20.96;63.90;101130.38;4912968;28;120279;-78
2022/08/21 06:43:15;;;;;;;14.05;8.75;;;;;;;21.09;62.37;101132.63;4917514;28;119804;-79
2022/08/21 06:45:42;;;;;;;13.20;8.77;;;;;;;21.16;62.68;101126.50;4898097;28;120275;-79
2022/08/21 06:48:07;;;;;;;11.67;8.00;;;;;;;21.26;62.17;101136.13;4911230;28;120263;-78
2022/08/21 06:50:34;;;;;;;11.77;7.80;;;;;;;21.33;63.02;101135.59;4956499;22;120303;-83
2022/08/21 06:53:06;;;;;;;15.68;7.75;;;;;;;21.38;61.63;101128.47;4930751;28;120433;-83
2022/08/21 06:55:32;;;;;;;14.10;7.15;;;;;;;21.50;62.65;101132.69;4927907;28;122181;-82
2022/08/21 06:57:58;;;;;;;15.15;7.38;;;;;;;21.51;62.43;101127.88;4931038;28;120675;-82
2022/08/21 07:00:24;;;;;;;12.33;6.93;;;;;;;21.62;61.45;101134.16;4931286;28;120410;-82
2022/08/21 07:02:50;;;;;;;10.93;6.47;;;;;;;21.64;61.67;101126.03;4943484;28;120317;-82
2022/08/21 07:05:16;;;;;;;11.87;5.70;;;;;;;21.69;59.68;101133.59;4946160;28;119958;-83
2022/08/21 07:07:43;;;;;;;10.85;5.35;;;;;;;21.70;60.99;101117.59;4913500;28;122821;-82
2022/08/21 07:10:09;;;;;;;9.77;5.30;;;;;;;21.77;60.58;101111.50;4947100;28;120940;-83
2022/08/21 07:12:37;;;;;;;10.65;5.22;;;;;;;21.81;60.60;101106.38;4948269;28;120318;-83
2022/08/21 07:15:03;;;;;;;11.27;5.03;;;;;;;21.96;59.38;101123.50;4939094;28;121389;-83
2022/08/21 07:17:29;;;;;;;9.30;4.20;;;;;;;21.97;58.88;101119.44;4947058;28;120764;-83
2022/08/21 07:19:55;;;;;;;8.63;4.50;;;;;;;22.02;59.13;101118.66;4949539;28;120535;-82
2022/08/21 07:22:21;;;;;;;10.20;4.20;;;;;;;22.09;59.00;101113.81;4925758;28;122185;-82
2022/08/21 07:24:46;;;;;;;8.75;3.83;;;;;;;22.20;57.51;101128.44;4942688;28;120661;-82
2022/08/21 07:27:12;;;;;;;9.50;3.80;;;;;;;22.19;58.21;101117.78;4946661;28;121173;-82
2022/08/21 07:29:38;;;;;;;8.85;3.50;;;;;;;22.33;59.48;101116.66;4950071;28;120917;-83
2022/08/21 07:32:04;;;;;;;6.72;3.08;;;;;;;22.33;57.68;101117.41;4913817;28;122397;-82
2022/08/21 07:34:30;;;;;;;8.00;2.90;;;;;;;22.45;56.82;101118.03;4946741;28;120828;-82
2022/08/21 07:36:57;;;;;;;8.77;3.10;;;;;;;22.51;58.17;101120.81;4945995;28;120332;-82
2022/08/21 07:39:22;;;;;;;7.70;2.70;;;;;;;22.52;55.34;101125.88;4946514;28;122530;-82
2022/08/21 07:41:48;;;;;;;6.90;2.70;;;;;;;22.61;55.98;101116.38;4923349;28;124245;-83
2022/08/21 07:44:14;;;;;;;8.40;2.78;;;;;;;22.70;56.20;101118.81;4929577;28;120795;-83
2022/08/21 07:46:39;;;;;;;6.50;2.67;;;;;;;22.77;56.47;101109.09;4946847;28;120490;-82
2022/08/21 07:49:05;;;;;;;5.90;2.60;;;;;;;22.83;57.11;101109.81;4925510;28;124051;-82
2022/08/21 07:51:33;;;;;;;8.15;2.80;;;;;;;22.91;57.51;101113.50;4932394;28;121620;-81
2022/08/21 07:54:00;;;;;;;7.00;2.75;;;;;;;23.02;57.21;101110.59;4926215;28;122738;-82
2022/08/21 07:56:27;;;;;;;8.98;3.33;;;;;;;23.14;57.91;101106.38;4912134;28;121474;-82
2022/08/21 07:58:54;;;;;;;8.40;3.25;;;;;;;23.30;56.95;101107.44;4924082;28;123370;-83
2022/08/21 08:01:20;;;;;;;6.63;2.70;;;;;;;23.48;56.46;101109.50;4925660;28;124432;-83
2022/08/21 08:03:46;;;;;;;7.53;2.60;;;;;;;23.70;56.76;101102.84;4927985;28;121720;-83
2022/08/21 08:06:12;;;;;;;7.63;2.80;;;;;;;24.00;56.51;101113.06;4942246;28;123648;-83
2022/08/21 08:08:40;;;;;;;8.13;2.80;;;;;;;24.26;54.79;101104.72;4927841;28;125398;-83
2022/08/21 08:11:06;;;;;;;10.20;2.93;;;;;;;24.46;55.03;101109.75;4948407;28;122242;-82
2022/08/21 08:13:38;;;;;;;7.40;3.20;;;;;;;24.70;54.43;101108.03;4910620;28;125260;-82
2022/08/21 08:16:04;;;;;;;9.15;2.70;;;;;;;24.82;54.13;101103.69;4943794;28;121881;-82
2022/08/21 08:18:30;;;;;;;8.00;3.15;;;;;;;25.06;53.97;101103.47;4945750;28;124142;-83
2022/08/21 08:20:55;;;;;;;6.95;2.80;;;;;;;25.19;52.84;101099.16;4943926;28;122875;-82
2022/08/21 08:23:22;;;;;;;7.53;2.80;;;;;;;25.31;53.35;101100.41;4943497;28;122412;-83
2022/08/21 08:25:48;;;;;;;8.27;2.88;;;;;;;25.52;52.90;101108.88;4910760;28;124674;-82
2022/08/21 08:28:14;;;;;;;7.57;2.78;;;;;;;25.70;52.61;101108.72;4926876;28;125286;-83
2022/08/21 08:30:46;;;;;;;9.90;3.00;;;;;;;25.83;51.41;101104.38;4922182;28;122102;-82
2022/08/21 08:33:12;;;;;;;5.90;2.72;;;;;;;25.87;51.78;101099.16;4930850;28;125447;-83
2022/08/21 08:36:04;;;;;;;7.50;2.80;;;;;;;25.94;51.83;101104.84;4956984;28;122472;-81
2022/08/21 08:38:29;;;;;;;9.73;3.28;;;;;;;26.09;51.72;101103.47;4923850;28;124456;-81
2022/08/21 08:41:16;;;;;;;7.20;2.90;;;;;;;26.17;51.19;101107.09;4926378;28;125673;-82
2022/08/21 08:43:48;;;;;;;8.88;3.35;;;;;;;26.21;50.60;101099.81;4927069;28;122670;-82
2022/08/21 08:46:18;;;;;;;10.45;3.17;;;;;;;26.24;50.03;101100.75;4941212;28;123327;-81
2022/08/21 08:49:02;;;;;;;8.02;2.97;;;;;;;26.29;50.83;101097.81;4922208;28;125825;-82
2022/08/21 08:51:43;;;;;;;8.02;2.88;;;;;;;26.28;50.32;101093.50;4939723;28;123822;-82
2022/08/21 08:54:18;;;;;;;7.53;2.60;;;;;;;26.36;50.43;101087.97;4942833;28;123375;-82
2022/08/21 08:56:45;;;;;;;9.77;3.20;;;;;;;26.36;49.79;101085.16;4944220;28;122758;-82
2022/08/21 08:59:22;;;;;;;6.55;2.78;;;;;;;26.34;50.36;101084.16;4940787;28;121976;-81
2022/08/21 09:01:48;;;;;;;7.07;3.00;;;;;;;26.39;51.27;101080.47;4926378;28;125543;-82
2022/08/21 09:04:22;;;;;;;9.03;2.73;;;;;;;26.45;50.36;101076.19;4926049;28;123433;-82
2022/08/21 09:07:10;;;;;;;7.97;2.90;;;;;;;26.49;49.90;101081.47;4925040;28;123222;-82
2022/08/21 09:10:15;;;;;;;7.78;2.60;;;;;;;26.57;49.10;101082.28;4909964;28;124049;-82
2022/08/21 09:13:13;;;;;;;7.40;2.73;;;;;;;26.55;49.48;101065.97;4926459;28;122278;-82
2022/08/21 09:15:52;;;;;;;5.50;2.45;;;;;;;26.69;48.99;101085.53;4938410;28;123059;-82
2022/08/21 09:18:35;;;;;;;6.88;2.70;;;;;;;26.78;49.96;101077.34;4928514;28;125208;-82
2022/08/21 09:21:09;;;;;;;5.38;2.30;;;;;;;26.86;48.79;101064.06;4941987;28;122158;-82
2022/08/21 09:23:54;;;;;;;7.88;2.95;;;;;;;26.99;49.19;101063.22;4940417;28;123881;-82
2022/08/21 09:26:24;;;;;;;7.17;2.83;;;;;;;27.08;49.33;101065.47;4925978;28;122265;-81
2022/08/21 09:28:56;;;;;;;8.17;2.70;;;;;;;27.01;48.55;101054.97;4926086;28;123041;-82
2022/08/21 09:31:34;;;;;;;6.18;2.60;;;;;;;26.99;48.31;101065.25;4928858;28;123639;-82
2022/08/21 09:34:11;;;;;;;8.18;2.60;;;;;;;26.98;48.04;101060.94;4913770;28;123395;-82
2022/08/21 09:36:47;;;;;;;7.18;2.50;;;;;;;26.98;48.92;101064.50;4923878;28;122776;-82
2022/08/21 09:39:29;;;;;;;6.38;2.40;;;;;;;26.99;47.83;101070.88;4946976;28;122549;-82
2022/08/21 09:42:05;;;;;;;6.38;2.25;;;;;;;27.01;48.19;101054.22;4928639;28;122107;-81
2022/08/21 09:44:38;;;;;;;5.03;1.98;;;;;;;27.06;46.01;101058.91;4917344;28;123164;-82
2022/08/21 09:47:05;;;;;;;7.23;2.10;;;;;;;26.96;44.61;101052.25;4930184;28;122997;-82
2022/08/21 09:49:37;;;;;;;4.88;1.98;;;;;;;26.89;44.47;101051.69;4947014;28;122803;-81
2022/08/21 09:52:12;;;;;;;7.82;2.40;;;;;;;26.89;45.84;101068.56;4951934;28;122461;-82
2022/08/21 09:54:40;;;;;;;4.63;1.90;;;;;;;26.91;46.25;101062.38;4941261;28;122932;-82
2022/08/21 09:59:54;;;;;;;5.28;1.70;;;;;;;26.96;44.53;101052.25;4943540;28;122537;-83
2022/08/21 10:02:25;;;;;;;5.18;1.55;;;;;;;26.77;44.01;101050.50;4947776;28;122866;-82
2022/08/21 10:04:55;;;;;;;4.80;1.60;;;;;;;26.78;45.51;101077.34;4932419;28;123455;-82
2022/08/21 10:07:23;;;;;;;5.35;1.70;;;;;;;26.73;44.45;101055.72;4944775;28;122954;-82
2022/08/21 10:10:17;;;;;;;4.53;1.60;;;;;;;26.74;45.00;101060.06;4944340;28;123530;-82
2022/08/21 10:13:01;;;;;;;4.25;1.70;;;;;;;26.75;45.53;101058.75;4937743;28;122875;-83
2022/08/21 10:16:02;;;;;;;5.00;2.03;;;;;;;26.77;45.77;101058.94;4941162;28;122120;-83
2022/08/21 10:18:54;;;;;;;4.82;1.70;;;;;;;26.77;46.89;101052.56;4937903;28;123380;-82
2022/08/21 10:21:35;;;;;;;5.45;1.85;;;;;;;26.81;46.19;101050.91;4912985;28;123897;-83
2022/08/21 10:24:13;;;;;;;5.65;1.98;;;;;;;26.73;46.85;101047.28;4959263;28;123791;-83
2022/08/21 10:26:47;;;;;;;4.53;1.88;;;;;;;26.68;46.47;101058.69;4955815;28;122090;-83
2022/08/21 10:29:57;;;;;;;5.50;1.95;;;;;;;26.64;47.26;101047.81;4947357;28;122431;-82
2022/08/21 10:32:56;;;;;;;7.07;2.00;;;;;;;26.68;47.32;101053.81;4886976;28;123151;-83
2022/08/21 10:35:30;;;;;;;6.37;2.10;;;;;;;26.73;47.57;101046.53;4900071;28;122762;-82
2022/08/21 10:38:34;;;;;;;4.90;1.80;;;;;;;26.83;46.27;101053.91;4902453;28;122504;-82
2022/08/21 10:41:18;;;;;;;5.07;1.80;;;;;;;26.81;45.75;101045.28;4885688;28;125548;-82
2022/08/21 10:44:10;;;;;;;5.13;1.70;;;;;;;26.78;45.03;101048.44;4876679;28;123719;-82
2022/08/21 10:47:08;;;;;;;5.57;1.83;;;;;;;26.72;45.34;101045.03;4886758;28;122477;-82
2022/08/21 10:49:44;;;;;;;4.37;1.60;;;;;;;26.66;46.08;101059.25;4880319;28;123488;-82
2022/08/21 10:52:25;;;;;;;6.10;1.80;;;;;;;26.64;45.60;101056.25;4883732;28;122429;-82
2022/08/21 10:54:57;;;;;;;5.43;1.90;;;;;;;26.70;45.61;101056.84;4870268;28;122736;-83
2022/08/21 10:57:42;;;;;;;5.97;1.90;;;;;;;26.79;46.19;101055.59;4902067;28;123039;-82
2022/08/21 11:00:24;;;;;;;5.18;1.73;;;;;;;26.88;45.44;101047.34;4886072;28;122776;-82
2022/08/21 11:03:02;;;;;;;6.03;1.80;;;;;;;26.91;44.76;101051.88;4901476;28;122584;-84
2022/08/21 11:05:35;;;;;;;6.05;1.80;;;;;;;26.91;45.15;101057.50;4909485;28;124299;-81
2022/08/21 11:08:07;;;;;;;5.83;1.90;;;;;;;26.91;45.61;101059.56;4942547;28;122569;-82
2022/08/21 11:10:41;;;;;;;6.40;2.03;;;;;;;26.89;45.67;101054.50;4940354;28;125158;-82
2022/08/21 11:13:31;;;;;;;5.95;1.88;;;;;;;26.95;45.43;101045.88;4941101;28;123110;-83
2022/08/21 11:16:23;;;;;;;7.45;1.98;;;;;;;27.02;46.33;101041.63;4939664;28;123425;-83
2022/08/21 11:19:21;;;;;;;5.65;2.08;;;;;;;27.14;46.97;101048.41;4866825;28;122687;-82
2022/08/21 11:22:02;;;;;;;5.80;1.83;;;;;;;27.26;47.21;101046.78;4909231;28;122294;-83
2022/08/21 11:24:34;;;;;;;7.60;2.03;;;;;;;27.41;46.51;101060.13;4942441;28;122724;-84